Time;durP1;ratioP1;P1;durP2;ratioP2;P2;SDS_P1;SDS_P2;PMS_P1;PMS_P2;Temp;Humidity;BMP_temperature;BMP_pressure;BME280_temperature;BME280_humidity;BME280_pressure;Samples;Min_cycle;Max_cycle;Signal;HPM_P1;HPM_P2
2021/10/22 00:00:34;;;;;;;3.30;1.43;;;8.60;80.50;;;;;;5059146;28;20821;-42
2021/10/22 00:03:01;;;;;;;4.17;2.50;;;8.60;80.20;;;;;;5040950;28;20473;-43
2021/10/22 00:05:28;;;;;;;8.43;2.00;;;8.60;80.40;;;;;;5028288;28;21010;-43
2021/10/22 00:07:55;;;;;;;3.13;2.00;;;8.50;80.70;;;;;;5045174;28;20481;-43
2021/10/22 00:10:22;;;;;;;2.70;1.70;;;8.50;80.70;;;;;;5043420;28;20446;-43
2021/10/22 00:12:48;;;;;;;4.87;2.00;;;8.50;80.80;;;;;;5061867;28;20457;-43
2021/10/22 00:15:16;;;;;;;4.50;2.10;;;8.50;80.80;;;;;;5062763;28;20450;-43
2021/10/22 00:17:43;;;;;;;3.23;1.30;;;8.50;80.80;;;;;;5060694;28;20450;-43
2021/10/22 00:20:10;;;;;;;4.87;1.70;;;8.50;80.80;;;;;;5062714;28;20876;-43
2021/10/22 00:22:38;;;;;;;4.17;1.90;;;8.50;80.70;;;;;;5057174;28;20457;-43
2021/10/22 00:25:05;;;;;;;4.70;2.43;;;8.50;80.80;;;;;;5063185;28;20449;-43
2021/10/22 00:27:32;;;;;;;4.63;2.53;;;8.40;80.80;;;;;;5062736;28;20465;-43
2021/10/22 00:29:59;;;;;;;4.30;2.07;;;8.40;81.10;;;;;;5057964;28;20488;-42
2021/10/22 00:32:27;;;;;;;6.60;1.67;;;8.50;81.00;;;;;;5065698;28;20458;-42
2021/10/22 00:34:59;;;;;;;4.47;1.97;;;8.40;81.10;;;;;;5064650;28;20458;-43
2021/10/22 00:37:26;;;;;;;3.07;1.70;;;8.30;81.30;;;;;;5060296;28;20954;-43
2021/10/22 00:39:52;;;;;;;5.27;2.50;;;8.30;81.40;;;;;;5064792;28;20469;-42
2021/10/22 00:42:21;;;;;;;5.27;3.33;;;8.30;81.40;;;;;;5045993;28;20488;-43
2021/10/22 00:44:49;;;;;;;9.03;2.13;;;8.20;81.70;;;;;;5047814;28;20457;-43
2021/10/22 00:47:16;;;;;;;5.63;1.50;;;8.20;81.50;;;;;;5062692;28;20451;-43
2021/10/22 00:49:43;;;;;;;7.67;1.70;;;8.20;81.50;;;;;;5064007;28;20493;-43
2021/10/22 00:52:10;;;;;;;2.20;1.37;;;8.20;81.50;;;;;;5042656;28;20447;-42
2021/10/22 00:54:37;;;;;;;3.67;1.77;;;8.20;81.70;;;;;;5051055;28;20464;-42
2021/10/22 00:57:05;;;;;;;3.20;2.00;;;8.20;81.50;;;;;;5063164;28;20450;-42
2021/10/22 00:59:32;;;;;;;4.03;1.80;;;8.20;81.40;;;;;;5063326;28;20457;-43
2021/10/22 01:01:59;;;;;;;4.13;2.37;;;8.20;81.70;;;;;;5059696;28;20468;-43
2021/10/22 01:04:26;;;;;;;4.70;1.73;;;8.10;81.70;;;;;;5063763;28;20508;-43
2021/10/22 01:06:53;;;;;;;5.97;2.40;;;8.10;81.80;;;;;;5063997;28;20452;-42
2021/10/22 01:09:21;;;;;;;10.37;2.90;;;8.20;81.90;;;;;;5041969;28;20480;-42
2021/10/22 01:11:49;;;;;;;3.17;1.90;;;8.10;81.90;;;;;;5061200;28;20534;-42
2021/10/22 01:14:17;;;;;;;3.77;1.63;;;8.20;81.70;;;;;;5057616;28;20833;-42
2021/10/22 01:16:44;;;;;;;8.83;5.40;;;8.10;81.70;;;;;;5060719;28;20962;-42
2021/10/22 01:19:18;;;;;;;14.77;8.37;;;8.10;81.70;;;;;;5045355;28;20472;-42
2021/10/22 01:21:46;;;;;;;11.20;6.20;;;8.10;81.40;;;;;;5062298;28;20457;-43
2021/10/22 01:24:18;;;;;;;4.90;3.10;;;8.00;81.30;;;;;;5061145;28;20512;-43
2021/10/22 01:26:45;;;;;;;6.33;2.40;;;8.00;81.30;;;;;;5061824;28;20557;-43
2021/10/22 01:29:11;;;;;;;7.00;2.43;;;8.00;81.50;;;;;;5048456;28;20496;-43
2021/10/22 01:31:38;;;;;;;6.97;3.50;;;7.90;81.80;;;;;;5061289;28;20464;-43
2021/10/22 01:34:06;;;;;;;4.50;2.50;;;7.90;81.80;;;;;;5061997;28;20457;-43
2021/10/22 01:36:33;;;;;;;5.77;2.87;;;7.90;81.90;;;;;;5043942;28;20505;-43
2021/10/22 01:39:02;;;;;;;5.73;2.97;;;7.90;81.90;;;;;;5060182;28;20450;-43
2021/10/22 01:41:29;;;;;;;6.20;2.90;;;7.90;81.90;;;;;;5044557;28;20693;-43
2021/10/22 01:44:01;;;;;;;8.83;2.80;;;7.90;82.00;;;;;;5063041;28;20454;-42
2021/10/22 01:46:28;;;;;;;5.03;2.80;;;7.90;81.80;;;;;;5061510;28;20818;-43
2021/10/22 01:48:56;;;;;;;9.20;2.27;;;7.90;81.80;;;;;;5045761;28;20489;-43
2021/10/22 01:51:23;;;;;;;7.50;3.80;;;7.90;82.00;;;;;;5062044;28;20776;-43
2021/10/22 01:53:50;;;;;;;6.77;2.50;;;7.90;82.00;;;;;;5062277;28;20465;-43
2021/10/22 01:56:17;;;;;;;4.13;2.40;;;7.90;82.10;;;;;;5063788;28;20454;-43
2021/10/22 01:58:43;;;;;;;7.90;2.50;;;7.90;82.10;;;;;;5061921;28;20446;-43
2021/10/22 02:01:10;;;;;;;6.53;2.47;;;7.90;82.10;;;;;;5028825;28;20457;-43
2021/10/22 02:03:37;;;;;;;5.90;2.73;;;7.80;82.00;;;;;;5045986;28;20564;-43
2021/10/22 02:06:04;;;;;;;5.10;2.60;;;7.80;82.10;;;;;;5064884;28;21060;-43
2021/10/22 02:08:30;;;;;;;5.00;2.00;;;7.80;82.10;;;;;;5044890;28;20961;-43
2021/10/22 02:10:58;;;;;;;6.40;2.73;;;7.80;82.00;;;;;;5063424;28;20648;-43
2021/10/22 02:13:24;;;;;;;6.53;2.73;;;7.70;82.10;;;;;;5061842;28;20450;-43
2021/10/22 02:15:52;;;;;;;5.20;2.40;;;7.70;82.30;;;;;;5059540;28;20442;-43
2021/10/22 02:18:19;;;;;;;3.83;2.60;;;7.70;82.30;;;;;;5065004;28;20536;-43
2021/10/22 02:20:46;;;;;;;6.03;1.60;;;7.70;82.40;;;;;;5063307;28;20473;-42
2021/10/22 02:23:12;;;;;;;5.07;2.10;;;7.70;82.10;;;;;;5062600;28;20473;-42
2021/10/22 02:25:39;;;;;;;5.70;2.20;;;7.70;82.10;;;;;;5061549;28;20465;-42
2021/10/22 02:28:06;;;;;;;4.10;2.53;;;7.60;82.30;;;;;;5062670;28;20454;-42
2021/10/22 02:30:33;;;;;;;5.50;3.00;;;7.60;82.40;;;;;;5047142;28;20486;-43
2021/10/22 02:33:00;;;;;;;4.97;2.20;;;7.60;82.50;;;;;;5049964;28;20536;-43
2021/10/22 02:35:27;;;;;;;5.40;2.50;;;7.50;82.50;;;;;;5063407;28;20489;-43
2021/10/22 02:37:54;;;;;;;7.57;2.30;;;7.50;82.40;;;;;;5061873;28;20446;-42
2021/10/22 02:40:21;;;;;;;4.90;2.50;;;7.50;82.50;;;;;;5059183;28;20820;-42
2021/10/22 02:42:48;;;;;;;4.67;2.13;;;7.50;82.60;;;;;;5061061;28;20453;-43
2021/10/22 02:45:15;;;;;;;7.77;2.60;;;7.50;82.70;;;;;;5061241;28;20450;-42
2021/10/22 02:47:42;;;;;;;2.40;1.70;;;7.50;82.50;;;;;;5047805;28;20472;-42
2021/10/22 02:50:09;;;;;;;5.10;2.27;;;7.50;82.40;;;;;;5059171;28;20488;-42
2021/10/22 02:52:36;;;;;;;9.63;2.50;;;7.50;82.40;;;;;;5047354;28;20942;-42
2021/10/22 02:55:03;;;;;;;10.90;2.67;;;7.50;82.40;;;;;;5046704;28;20947;-42
2021/10/22 02:57:30;;;;;;;2.63;2.20;;;7.40;82.60;;;;;;5062396;28;20441;-42
2021/10/22 02:59:57;;;;;;;4.57;2.20;;;7.40;82.60;;;;;;5048558;28;20461;-43
2021/10/22 03:02:23;;;;;;;5.50;2.57;;;7.40;82.60;;;;;;5045330;28;20473;-43
2021/10/22 03:04:50;;;;;;;3.17;1.90;;;7.40;82.70;;;;;;5044747;28;20993;-43
2021/10/22 03:07:17;;;;;;;6.13;2.63;;;7.40;82.70;;;;;;5062455;28;20477;-43
2021/10/22 03:09:44;;;;;;;7.37;3.50;;;7.40;82.50;;;;;;5060582;28;20474;-42
2021/10/22 03:12:10;;;;;;;8.90;2.40;;;7.40;82.50;;;;;;5059568;28;20720;-42
2021/10/22 03:14:37;;;;;;;3.87;2.60;;;7.30;82.80;;;;;;5063187;28;20454;-43
2021/10/22 03:17:04;;;;;;;6.23;2.20;;;7.30;83.00;;;;;;5061341;28;20457;-43
2021/10/22 03:19:31;;;;;;;5.30;2.77;;;7.30;83.10;;;;;;5060985;28;20455;-43
2021/10/22 03:21:58;;;;;;;5.83;2.10;;;7.20;83.20;;;;;;5046205;28;20733;-43
2021/10/22 03:24:25;;;;;;;9.43;2.60;;;7.20;83.20;;;;;;5063345;28;20463;-42
2021/10/22 03:26:51;;;;;;;5.57;2.73;;;7.30;83.00;;;;;;5058110;28;20457;-42
2021/10/22 03:29:19;;;;;;;5.37;2.20;;;7.30;83.00;;;;;;5060159;28;20490;-42
2021/10/22 03:31:47;;;;;;;14.90;2.67;;;7.30;83.00;;;;;;5057658;28;20462;-42
2021/10/22 03:34:15;;;;;;;6.33;3.10;;;7.30;83.20;;;;;;5061929;28;20449;-42
2021/10/22 03:36:42;;;;;;;3.77;2.30;;;7.30;83.30;;;;;;5059851;28;20446;-42
2021/10/22 03:39:09;;;;;;;6.97;2.80;;;7.30;83.30;;;;;;5061270;28;20453;-42
2021/10/22 03:41:36;;;;;;;12.50;3.27;;;7.30;83.30;;;;;;5044394;28;20450;-42
2021/10/22 03:44:03;;;;;;;8.50;3.27;;;7.30;83.00;;;;;;5058467;28;20536;-42
2021/10/22 03:46:29;;;;;;;6.40;2.90;;;7.30;82.90;;;;;;5063280;28;20954;-43
2021/10/22 03:48:57;;;;;;;6.27;2.90;;;7.30;82.70;;;;;;5059160;28;20510;-42
2021/10/22 03:51:23;;;;;;;3.57;2.47;;;7.30;82.80;;;;;;5061382;28;20977;-42
2021/10/22 03:53:50;;;;;;;20.10;3.43;;;7.30;83.00;;;;;;5060013;28;20989;-42
2021/10/22 03:56:17;;;;;;;4.60;2.20;;;7.30;82.90;;;;;;5046476;28;20451;-42
2021/10/22 03:58:43;;;;;;;5.37;2.80;;;7.30;83.00;;;;;;5062416;28;20445;-42
2021/10/22 04:01:10;;;;;;;3.37;2.23;;;7.30;83.00;;;;;;5043075;28;20469;-43
2021/10/22 04:03:37;;;;;;;3.30;2.40;;;7.30;83.10;;;;;;5061289;28;20544;-43
2021/10/22 04:06:04;;;;;;;6.10;2.20;;;7.30;83.10;;;;;;5064606;28;20540;-42
2021/10/22 04:08:31;;;;;;;2.50;2.30;;;7.30;82.80;;;;;;5061407;28;20454;-42
2021/10/22 04:10:58;;;;;;;5.67;3.13;;;7.30;82.80;;;;;;5061404;28;20481;-42
2021/10/22 04:13:25;;;;;;;5.30;2.20;;;7.30;82.60;;;;;;5060449;28;20472;-42
2021/10/22 04:15:52;;;;;;;8.50;2.77;;;7.20;83.00;;;;;;5065032;28;20472;-42
2021/10/22 04:18:19;;;;;;;8.50;4.60;;;7.30;83.00;;;;;;5068140;28;20668;-42
2021/10/22 04:20:46;;;;;;;6.27;2.50;;;7.20;83.10;;;;;;5063143;28;20455;-42
2021/10/22 04:23:12;;;;;;;6.30;2.50;;;7.20;83.10;;;;;;5065913;28;20837;-42
2021/10/22 04:25:40;;;;;;;4.00;2.33;;;7.20;83.10;;;;;;5061721;28;20468;-42
2021/10/22 04:28:07;;;;;;;4.33;2.37;;;7.20;83.00;;;;;;5065883;28;20449;-42
2021/10/22 04:30:34;;;;;;;7.67;2.70;;;7.20;83.00;;;;;;5046658;28;20482;-42
2021/10/22 04:33:02;;;;;;;4.83;2.67;;;7.20;83.00;;;;;;5048196;28;20441;-42
2021/10/22 04:35:30;;;;;;;4.83;2.37;;;7.20;83.10;;;;;;5049449;28;20476;-42
2021/10/22 04:40:33;;;;;;;4.40;2.43;;;7.20;83.10;;;;;;5062926;28;20449;-42
2021/10/22 04:43:03;;;;;;;7.13;2.40;;;7.20;83.00;;;;;;5064464;28;20951;-42
2021/10/22 04:45:36;;;;;;;10.53;3.10;;;7.20;82.80;;;;;;5064144;28;20453;-43
2021/10/22 04:48:05;;;;;;;8.40;3.23;;;7.20;82.50;;;;;;5065287;28;20453;-43
2021/10/22 04:50:33;;;;;;;5.43;2.30;;;7.20;82.80;;;;;;5062921;28;20488;-42
2021/10/22 04:53:00;;;;;;;8.40;2.87;;;7.20;82.50;;;;;;5043336;28;20986;-42
2021/10/22 04:55:28;;;;;;;4.83;2.80;;;7.20;82.90;;;;;;5064857;28;20479;-42
2021/10/22 04:57:55;;;;;;;4.47;2.60;;;7.20;82.90;;;;;;5064177;28;20448;-42
2021/10/22 05:00:22;;;;;;;6.27;2.50;;;7.20;82.90;;;;;;5046475;28;20461;-42
2021/10/22 05:02:49;;;;;;;8.60;2.83;;;7.20;83.00;;;;;;5045689;28;20569;-43
2021/10/22 05:05:16;;;;;;;11.27;3.17;;;7.20;83.00;;;;;;5063647;28;20485;-42
2021/10/22 05:07:43;;;;;;;8.03;3.60;;;7.10;83.10;;;;;;5061835;28;20460;-42
2021/10/22 05:10:10;;;;;;;5.20;3.10;;;7.20;83.00;;;;;;5065832;28;20489;-42
2021/10/22 05:12:37;;;;;;;4.60;3.00;;;7.20;82.90;;;;;;5065652;28;20442;-42
2021/10/22 05:15:06;;;;;;;6.20;3.00;;;7.20;82.60;;;;;;5042847;28;21002;-42
2021/10/22 05:17:33;;;;;;;8.23;2.60;;;7.20;82.40;;;;;;5063314;28;20865;-42
2021/10/22 05:20:00;;;;;;;4.40;2.50;;;7.20;82.40;;;;;;5064805;28;20451;-42
2021/10/22 05:22:27;;;;;;;9.13;3.87;;;7.20;82.80;;;;;;5065561;28;20446;-42
2021/10/22 05:24:54;;;;;;;5.20;3.17;;;7.20;83.00;;;;;;5065933;28;20813;-42
2021/10/22 05:27:21;;;;;;;9.37;3.00;;;7.10;83.00;;;;;;5042797;28;20450;-42
2021/10/22 05:29:47;;;;;;;4.10;3.27;;;7.10;83.10;;;;;;5044595;28;20993;-42
2021/10/22 05:32:14;;;;;;;6.60;2.50;;;7.10;83.10;;;;;;5064699;28;20446;-43
2021/10/22 05:34:41;;;;;;;4.87;3.20;;;7.10;82.90;;;;;;5063993;28;20458;-42
2021/10/22 05:37:08;;;;;;;9.70;2.90;;;7.10;82.80;;;;;;5044209;28;20812;-42
2021/10/22 05:39:34;;;;;;;6.43;3.60;;;7.10;82.80;;;;;;5061136;28;20446;-42
2021/10/22 05:42:06;;;;;;;3.40;2.70;;;7.10;82.80;;;;;;5063362;28;20449;-42
2021/10/22 05:44:33;;;;;;;13.17;3.70;;;7.00;82.90;;;;;;5061268;28;20617;-42
2021/10/22 05:47:00;;;;;;;7.33;3.00;;;7.00;82.80;;;;;;5065655;28;20454;-42
2021/10/22 05:49:27;;;;;;;7.20;2.67;;;7.00;83.00;;;;;;5063263;28;20450;-42
2021/10/22 05:51:54;;;;;;;6.93;3.00;;;7.00;83.00;;;;;;5054045;28;20454;-42
2021/10/22 05:54:21;;;;;;;3.83;2.70;;;7.00;83.10;;;;;;5059489;28;20461;-42
2021/10/22 05:56:49;;;;;;;6.43;2.83;;;7.00;83.20;;;;;;5059864;28;20792;-42
2021/10/22 05:59:16;;;;;;;7.63;3.27;;;7.00;82.80;;;;;;5048495;28;20465;-42
2021/10/22 06:01:43;;;;;;;11.73;3.10;;;7.00;82.90;;;;;;5060930;28;20453;-42
2021/10/22 06:04:10;;;;;;;8.43;2.90;;;7.00;83.10;;;;;;5061453;28;20585;-42
2021/10/22 06:06:37;;;;;;;4.87;3.33;;;7.00;83.20;;;;;;5059930;28;20449;-42
2021/10/22 06:09:04;;;;;;;6.50;3.60;;;6.90;83.20;;;;;;5042594;28;20448;-42
2021/10/22 06:11:31;;;;;;;7.17;3.50;;;6.90;83.10;;;;;;5055632;28;20474;-42
2021/10/22 06:13:57;;;;;;;8.23;3.60;;;6.90;83.10;;;;;;5039916;28;20533;-42
2021/10/22 06:16:24;;;;;;;6.77;3.00;;;6.90;83.00;;;;;;5058992;28;20445;-42
2021/10/22 06:18:52;;;;;;;4.47;3.07;;;6.90;83.00;;;;;;5042869;28;20450;-42
2021/10/22 06:24:02;;;;;;;7.30;3.27;;;6.90;82.80;;;;;;5065524;28;20476;-42
2021/10/22 06:26:32;;;;;;;8.30;3.10;;;6.90;82.80;;;;;;5041265;28;20945;-43
2021/10/22 06:29:00;;;;;;;5.30;3.80;;;6.90;82.90;;;;;;5059076;28;20441;-42
2021/10/22 06:31:27;;;;;;;5.87;3.70;;;6.90;83.00;;;;;;5060121;28;20496;-42
2021/10/22 06:33:54;;;;;;;8.83;3.80;;;6.90;83.00;;;;;;5056221;28;20616;-42
2021/10/22 06:36:21;;;;;;;6.53;3.37;;;6.90;83.10;;;;;;5061262;28;20446;-42
2021/10/22 06:38:48;;;;;;;9.20;4.50;;;6.90;83.10;;;;;;5059538;28;20456;-42
2021/10/22 06:41:15;;;;;;;7.70;3.50;;;6.90;83.30;;;;;;5061197;28;20454;-42
2021/10/22 06:43:42;;;;;;;10.73;3.73;;;6.90;83.40;;;;;;5059218;28;20454;-42
2021/10/22 06:46:10;;;;;;;5.40;3.27;;;6.90;83.40;;;;;;5042713;28;20463;-42
2021/10/22 06:48:39;;;;;;;3.67;2.90;;;7.00;83.60;;;;;;5065493;28;21200;-42
2021/10/22 06:51:07;;;;;;;6.70;3.40;;;7.00;83.30;;;;;;5056503;28;20489;-42
2021/10/22 06:53:34;;;;;;;5.37;3.60;;;7.00;83.20;;;;;;5062689;28;20450;-42
2021/10/22 06:56:01;;;;;;;4.20;3.80;;;7.00;83.30;;;;;;5062765;28;20485;-42
2021/10/22 06:58:28;;;;;;;12.70;3.53;;;7.10;83.30;;;;;;5043722;28;20451;-42
2021/10/22 07:00:55;;;;;;;6.47;4.07;;;7.10;83.40;;;;;;5060531;28;20484;-42
2021/10/22 07:03:25;;;;;;;5.43;3.00;;;7.10;83.30;;;;;;5029157;28;20470;-43
2021/10/22 07:08:25;;;;;;;4.80;3.10;;;7.10;83.60;;;;;;5053527;28;20984;-42
2021/10/22 07:10:53;;;;;;;10.30;3.17;;;7.10;83.60;;;;;;5057940;28;20476;-42
2021/10/22 07:13:23;;;;;;;5.77;3.23;;;7.20;83.40;;;;;;5056747;28;20460;-42
2021/10/22 07:15:50;;;;;;;8.30;2.70;;;7.30;83.00;;;;;;5059438;28;20453;-42
2021/10/22 07:18:17;;;;;;;4.23;3.00;;;7.30;82.40;;;;;;5053331;28;20459;-42
2021/10/22 07:20:44;;;;;;;8.33;3.20;;;7.30;82.90;;;;;;5058287;28;20460;-42
2021/10/22 07:23:11;;;;;;;4.37;2.53;;;7.30;82.90;;;;;;5058647;28;20870;-42
2021/10/22 07:25:40;;;;;;;17.63;4.50;;;7.30;83.20;;;;;;5064459;28;20461;-42
2021/10/22 07:28:14;;;;;;;9.33;3.90;;;7.30;83.30;;;;;;5058036;28;21003;-43
2021/10/22 07:30:45;;;;;;;6.43;3.60;;;7.40;83.10;;;;;;5062049;28;20481;-43
2021/10/22 07:33:14;;;;;;;5.20;3.10;;;7.40;82.40;;;;;;5056885;28;20500;-42
2021/10/22 07:35:41;;;;;;;7.33;4.33;;;7.40;82.50;;;;;;5064280;28;20531;-42
2021/10/22 07:38:11;;;;;;;7.83;3.13;;;7.50;82.30;;;;;;5059849;28;21029;-42
2021/10/22 07:40:42;;;;;;;7.47;3.97;;;7.50;82.50;;;;;;5062047;28;20576;-42
2021/10/22 07:43:09;;;;;;;2.00;1.80;;;7.60;81.90;;;;;;5061885;28;20804;-42
2021/10/22 07:45:36;;;;;;;4.97;2.43;;;7.60;82.00;;;;;;5059905;28;20453;-42
2021/10/22 07:48:04;;;;;;;6.80;3.30;;;7.60;81.60;;;;;;5065073;28;20450;-42
2021/10/22 07:50:31;;;;;;;6.70;2.40;;;7.70;81.00;;;;;;5063491;28;20490;-42
2021/10/22 07:52:58;;;;;;;5.53;2.90;;;7.70;80.90;;;;;;5063654;28;20464;-42
2021/10/22 07:55:24;;;;;;;7.47;3.17;;;7.70;81.50;;;;;;5045462;28;20456;-42
2021/10/22 07:57:52;;;;;;;3.13;2.20;;;7.70;81.60;;;;;;5063564;28;20968;-43
2021/10/22 08:00:19;;;;;;;9.40;3.57;;;7.80;81.40;;;;;;5065860;28;20831;-43
2021/10/22 08:02:46;;;;;;;4.63;2.23;;;7.80;80.50;;;;;;5061677;28;20442;-43
2021/10/22 08:05:13;;;;;;;6.17;2.50;;;7.80;80.80;;;;;;5059042;28;20446;-42
2021/10/22 08:07:41;;;;;;;3.00;2.23;;;7.90;81.00;;;;;;5059724;28;20453;-42
2021/10/22 08:10:09;;;;;;;3.53;2.30;;;7.90;81.00;;;;;;5065621;28;20455;-42
2021/10/22 08:12:36;;;;;;;7.33;2.90;;;8.00;80.40;;;;;;5065500;28;20446;-43
2021/10/22 08:15:04;;;;;;;7.50;2.80;;;8.00;80.20;;;;;;5062687;28;20454;-43
2021/10/22 08:17:31;;;;;;;11.23;2.80;;;8.10;79.90;;;;;;5060530;28;20452;-42
2021/10/22 08:20:06;;;;;;;6.03;2.63;;;8.10;80.00;;;;;;5062356;28;20525;-43
2021/10/22 08:22:33;;;;;;;10.40;2.73;;;8.10;80.00;;;;;;5042405;28;20820;-42
2021/10/22 08:25:21;;;;;;;3.13;2.27;;;8.20;80.30;;;;;;5061434;28;20457;-42
2021/10/22 08:27:49;;;;;;;8.30;2.10;;;8.20;79.20;;;;;;5061885;28;20443;-43
2021/10/22 08:30:23;;;;;;;4.90;2.10;;;8.30;78.30;;;;;;5062990;28;20445;-42
2021/10/22 08:32:51;;;;;;;14.10;2.83;;;8.40;78.60;;;;;;5064138;28;20450;-42
2021/10/22 08:35:20;;;;;;;5.60;2.30;;;8.40;78.70;;;;;;5068700;28;20838;-43
2021/10/22 08:37:47;;;;;;;7.00;3.13;;;8.50;78.50;;;;;;5043767;28;20958;-43
2021/10/22 08:40:16;;;;;;;6.03;2.17;;;8.50;78.40;;;;;;5064185;28;20449;-43
2021/10/22 08:42:43;;;;;;;6.20;2.13;;;8.60;77.70;;;;;;5041411;28;20887;-42
2021/10/22 08:45:11;;;;;;;4.27;2.30;;;8.60;77.50;;;;;;5067115;28;20446;-42
2021/10/22 08:47:38;;;;;;;9.43;2.07;;;8.60;77.10;;;;;;5066625;28;20449;-43
2021/10/22 08:50:10;;;;;;;5.47;2.17;;;8.70;76.90;;;;;;5065543;28;20442;-43
2021/10/22 08:52:37;;;;;;;2.90;1.50;;;8.80;76.60;;;;;;5066288;28;20481;-43
2021/10/22 08:55:11;;;;;;;4.73;1.87;;;8.80;75.30;;;;;;5064868;28;20608;-43
2021/10/22 08:57:42;;;;;;;4.67;1.93;;;8.90;75.60;;;;;;5062023;28;20449;-43
2021/10/22 09:00:12;;;;;;;4.50;1.83;;;8.90;74.90;;;;;;5065102;28;20529;-42
2021/10/22 09:02:39;;;;;;;5.33;2.20;;;9.00;74.30;;;;;;5065217;28;20812;-43
2021/10/22 09:05:15;;;;;;;7.03;1.97;;;9.10;74.50;;;;;;5043312;28;20474;-43
2021/10/22 09:07:48;;;;;;;6.23;1.50;;;9.10;73.40;;;;;;5046456;28;20466;-42
2021/10/22 09:10:22;;;;;;;3.13;1.53;;;9.20;73.60;;;;;;5068149;28;20970;-42
2021/10/22 09:12:53;;;;;;;6.70;1.90;;;9.30;72.90;;;;;;5061193;28;20451;-42
2021/10/22 09:15:27;;;;;;;3.67;1.50;;;9.30;72.80;;;;;;5060963;28;20446;-42
2021/10/22 09:17:57;;;;;;;4.47;2.00;;;9.40;72.80;;;;;;5047064;28;20961;-42
2021/10/22 09:20:26;;;;;;;2.37;1.90;;;9.40;72.60;;;;;;5053549;28;20458;-43
2021/10/22 09:22:55;;;;;;;6.60;1.97;;;9.50;72.70;;;;;;5040243;28;20461;-43
2021/10/22 09:25:24;;;;;;;7.27;1.60;;;9.50;71.80;;;;;;5062077;28;20950;-43
2021/10/22 09:28:00;;;;;;;6.00;2.03;;;9.60;72.30;;;;;;5047364;28;20497;-43
2021/10/22 09:30:41;;;;;;;11.30;3.10;;;9.60;72.00;;;;;;5064545;28;20445;-42
2021/10/22 09:33:11;;;;;;;3.27;2.10;;;9.70;71.10;;;;;;5058549;28;20449;-43
2021/10/22 09:35:43;;;;;;;8.30;4.43;;;9.70;71.10;;;;;;5059363;28;20465;-43
2021/10/22 09:38:21;;;;;;;4.87;2.20;;;9.80;72.10;;;;;;5062399;28;20482;-43
2021/10/22 09:40:57;;;;;;;5.10;2.20;;;9.90;71.40;;;;;;5064033;28;20970;-43
2021/10/22 09:43:30;;;;;;;6.17;1.30;;;10.00;71.80;;;;;;5061376;28;20810;-43
2021/10/22 09:46:29;;;;;;;8.47;2.20;;;10.10;71.10;;;;;;5056958;28;20446;-43
2021/10/22 09:49:01;;;;;;;4.10;2.00;;;10.20;69.60;;;;;;5033775;28;20466;-43
2021/10/22 09:51:33;;;;;;;6.57;2.00;;;10.20;70.70;;;;;;5059060;28;20496;-43
2021/10/22 09:54:11;;;;;;;3.97;1.90;;;10.30;70.10;;;;;;5063733;28;20477;-43
2021/10/22 09:56:43;;;;;;;4.43;2.10;;;10.40;70.20;;;;;;5060782;28;20472;-43
2021/10/22 09:59:18;;;;;;;3.27;1.43;;;10.40;70.50;;;;;;5053808;28;20451;-43
2021/10/22 10:01:46;;;;;;;3.53;1.93;;;10.50;69.80;;;;;;5051665;28;20489;-43
2021/10/22 10:04:14;;;;;;;2.97;2.00;;;10.60;69.30;;;;;;5042204;28;20471;-43
2021/10/22 10:06:59;;;;;;;5.40;1.80;;;10.70;70.20;;;;;;5062021;28;20465;-42
2021/10/22 10:09:29;;;;;;;4.07;1.80;;;10.80;70.30;;;;;;5060816;28;20954;-43
2021/10/22 10:12:00;;;;;;;3.20;1.60;;;10.90;69.20;;;;;;5062285;28;20748;-43
2021/10/22 10:14:30;;;;;;;9.93;2.00;;;11.00;68.00;;;;;;5063631;28;20450;-42
2021/10/22 10:16:58;;;;;;;8.03;1.90;;;11.00;68.20;;;;;;5058825;28;20445;-43
2021/10/22 10:19:38;;;;;;;5.70;1.60;;;11.20;69.70;;;;;;5057835;28;20455;-43
2021/10/22 10:22:09;;;;;;;4.00;1.30;;;11.20;68.10;;;;;;5039927;28;20477;-43
2021/10/22 10:24:41;;;;;;;3.60;1.73;;;11.30;68.10;;;;;;5040187;28;20459;-43
2021/10/22 10:27:18;;;;;;;5.07;1.93;;;11.40;67.50;;;;;;5061288;28;20754;-42
2021/10/22 10:29:48;;;;;;;4.63;1.67;;;11.50;68.30;;;;;;5060116;28;20468;-43
2021/10/22 10:32:20;;;;;;;5.27;1.53;;;11.60;67.70;;;;;;5058540;28;20481;-43
2021/10/22 10:35:11;;;;;;;3.13;1.80;;;11.70;68.20;;;;;;5060201;28;20541;-43
2021/10/22 10:37:47;;;;;;;6.80;1.30;;;11.80;67.90;;;;;;5046799;28;20466;-42
2021/10/22 10:40:30;;;;;;;15.10;1.90;;;11.90;66.20;;;;;;5061407;28;20475;-43
2021/10/22 10:43:00;;;;;;;5.77;2.13;;;12.00;66.50;;;;;;5059794;28;20468;-43
2021/10/22 10:45:27;;;;;;;5.80;2.00;;;12.10;65.60;;;;;;5057062;28;20497;-43
2021/10/22 10:47:58;;;;;;;3.10;1.17;;;12.10;66.00;;;;;;5056760;28;20458;-43
2021/10/22 10:50:48;;;;;;;3.40;1.40;;;12.10;65.90;;;;;;5043647;28;20449;-43
2021/10/22 10:53:30;;;;;;;1.50;1.00;;;12.00;65.40;;;;;;5062577;28;20468;-42
2021/10/22 10:55:57;;;;;;;5.10;1.63;;;12.00;66.20;;;;;;5061755;28;20468;-43
2021/10/22 10:58:25;;;;;;;5.73;1.70;;;11.90;65.70;;;;;;5061197;28;20460;-42
2021/10/22 11:00:51;;;;;;;2.40;1.13;;;11.90;65.00;;;;;;5058688;28;20453;-42
2021/10/22 11:03:26;;;;;;;4.80;1.43;;;11.90;65.20;;;;;;5064706;28;20829;-43
2021/10/22 11:05:54;;;;;;;3.77;1.27;;;11.90;63.80;;;;;;5057936;28;20449;-43
2021/10/22 11:08:25;;;;;;;5.27;1.20;;;11.90;64.20;;;;;;5060476;28;20438;-43
2021/10/22 11:11:16;;;;;;;3.83;1.13;;;11.90;64.60;;;;;;5055942;28;20450;-43
2021/10/22 11:13:50;;;;;;;5.17;1.40;;;11.90;65.40;;;;;;5060274;28;20458;-43
2021/10/22 11:16:20;;;;;;;2.33;1.30;;;11.90;65.60;;;;;;5061223;28;20909;-43
2021/10/22 11:18:52;;;;;;;1.57;1.30;;;11.90;65.00;;;;;;5045941;28;20488;-43
2021/10/22 11:21:20;;;;;;;4.40;1.27;;;11.90;65.80;;;;;;5056258;28;21118;-43
2021/10/22 11:23:48;;;;;;;3.60;1.20;;;11.90;64.70;;;;;;5056825;28;20468;-43
2021/10/22 11:26:19;;;;;;;2.70;1.33;;;12.00;65.10;;;;;;5056145;28;20455;-43
2021/10/22 11:28:50;;;;;;;2.60;1.33;;;12.00;64.50;;;;;;5059403;28;20450;-42
2021/10/22 11:31:41;;;;;;;3.83;1.63;;;12.10;64.40;;;;;;5061034;28;21020;-42
2021/10/22 11:34:21;;;;;;;9.67;3.47;;;12.10;64.50;;;;;;5063107;28;20480;-43
2021/10/22 11:36:51;;;;;;;7.57;1.20;;;12.10;63.80;;;;;;5058538;28;20455;-43
2021/10/22 11:39:30;;;;;;;3.90;2.00;;;12.10;63.70;;;;;;5053594;28;20458;-43
2021/10/22 11:42:32;;;;;;;2.73;1.37;;;12.10;62.90;;;;;;5055535;28;20457;-42
2021/10/22 11:45:09;;;;;;;4.83;1.90;;;12.10;63.70;;;;;;5058325;28;20953;-42
2021/10/22 11:47:51;;;;;;;1.80;1.20;;;12.20;64.20;;;;;;5046786;28;20453;-42
2021/10/22 11:50:23;;;;;;;1.67;1.10;;;12.20;64.90;;;;;;5053883;28;20458;-43
2021/10/22 11:53:12;;;;;;;2.33;1.40;;;12.30;64.20;;;;;;5057016;28;20482;-42
2021/10/22 11:55:39;;;;;;;1.57;1.10;;;12.30;63.70;;;;;;5046601;28;20445;-43
2021/10/22 11:58:08;;;;;;;3.13;1.90;;;12.40;63.80;;;;;;5045514;28;20470;-43
2021/10/22 12:00:36;;;;;;;1.90;1.50;;;12.40;62.00;;;;;;5048581;28;20445;-42
2021/10/22 12:03:05;;;;;;;4.20;1.63;;;12.40;62.50;;;;;;5062250;28;20470;-43
2021/10/22 12:05:33;;;;;;;3.80;1.27;;;12.50;62.40;;;;;;5046160;28;20449;-42
2021/10/22 12:07:59;;;;;;;2.83;1.57;;;12.50;60.90;;;;;;5061483;28;21509;-43
2021/10/22 12:10:26;;;;;;;1.30;1.20;;;12.50;60.80;;;;;;5042817;28;20533;-43
2021/10/22 12:12:56;;;;;;;3.30;1.37;;;12.40;61.20;;;;;;5060629;28;21008;-43
2021/10/22 12:15:28;;;;;;;3.10;1.97;;;12.40;60.40;;;;;;5058560;28;20446;-43
2021/10/22 12:18:00;;;;;;;4.50;1.87;;;12.40;61.00;;;;;;5062299;28;20495;-43
2021/10/22 12:20:29;;;;;;;3.03;1.20;;;12.30;62.10;;;;;;5040879;28;20450;-43
2021/10/22 12:22:58;;;;;;;1.30;1.20;;;12.30;62.20;;;;;;5060039;28;20453;-43
2021/10/22 12:25:27;;;;;;;2.30;1.50;;;12.40;62.60;;;;;;5062292;28;20548;-43
2021/10/22 12:27:57;;;;;;;1.50;1.20;;;12.40;63.20;;;;;;5059311;28;20446;-43
2021/10/22 12:30:31;;;;;;;4.03;1.13;;;12.50;62.20;;;;;;5062223;28;20807;-43
2021/10/22 12:33:04;;;;;;;4.80;1.17;;;12.50;61.90;;;;;;5062116;28;20516;-42
2021/10/22 12:35:34;;;;;;;2.77;0.70;;;12.60;62.60;;;;;;5067301;28;20461;-43
2021/10/22 12:38:06;;;;;;;5.97;1.03;;;12.60;62.70;;;;;;5044712;28;20461;-43
2021/10/22 12:40:49;;;;;;;6.73;1.57;;;12.70;61.60;;;;;;5063405;28;20944;-42
2021/10/22 12:43:29;;;;;;;3.00;1.40;;;12.80;60.90;;;;;;5060689;28;20994;-42
2021/10/22 12:46:05;;;;;;;2.60;1.20;;;12.80;60.90;;;;;;5044914;28;20457;-43
2021/10/22 12:48:35;;;;;;;1.20;1.00;;;12.80;61.10;;;;;;5045920;28;20453;-42
2021/10/22 12:51:20;;;;;;;5.70;1.30;;;12.70;61.10;;;;;;5062784;28;20455;-43
2021/10/22 12:53:49;;;;;;;2.50;0.93;;;12.70;61.00;;;;;;5065857;28;20961;-43
2021/10/22 12:56:22;;;;;;;3.30;1.20;;;12.70;61.00;;;;;;5063983;28;20869;-43
2021/10/22 12:58:55;;;;;;;2.50;1.37;;;12.70;61.40;;;;;;5064340;28;20455;-43
2021/10/22 13:01:30;;;;;;;3.40;1.27;;;12.70;60.80;;;;;;5063094;28;20489;-43
2021/10/22 13:04:12;;;;;;;4.30;1.13;;;12.70;61.80;;;;;;5043452;28;20471;-43
2021/10/22 13:22:56;;;;;;;3.97;1.40;;;12.40;62.20;;;;;;5061510;28;20970;-42
2021/10/22 13:25:23;;;;;;;1.57;1.10;;;12.40;63.20;;;;;;5042506;28;20451;-42
2021/10/22 13:27:51;;;;;;;4.83;1.40;;;12.40;63.50;;;;;;5062608;28;21140;-42